Airfield :
LOGIN :

Register | Disclaimer

   EN    FR    IT 

 










Legend :    VFR   Marginal VFR   IFR   Intensive IFR   Very Intensive IFR
Visi :
Ceiling :
>= 8 km
>= 3000ft
5 to 8 km
1000 to 3000 ft
1500m to 5 km
500 to 1000 ft
800 to 1500m
200 to 500 ft
< 800m
< 200 ft
Symbols :   Thunderstorms  Fog  Heavy snow  Heavy precipitations  Wind > 20 kt
SIGMETs :     Misc.  Thunderstorms  Icing  Turbulence  Mountain Waves  Volcanic Ashes






- Airport Elevation : 1674 ft
- IATA code : BRN


LSZB - Bern Belp

CURRENT METAR :
  • 280550Z AUTO VRB01KT 0350 R14/0400U FG VV001 01/01 Q1012 RESN

EXPIRED METARs :
  • 280520Z AUTO VRB02KT 0800 R14/0400U FZDZFG FEW003 SCT040 01/01 Q1013 RESN
  • 280450Z AUTO VRB01KT 1300 R14/0400U -SN VV009 01/01 Q1013 REFZDZ
  • 280420Z AUTO VRB02KT 0900 R14/0375U FZDZFG SCT002 BKN003 01/01 Q1013 RESN
  • 280350Z AUTO VRB01KT 0800 R14/0500U FZDZFG SCT003 BKN006 OVC031 00/00 Q1014 RESN
  • 280320Z AUTO 09001KT 1000 R14/0750U -SN VV007 01/01 Q1014 REFZDZ

TAF TAF LSZB
Valid from the 28 at 06:00 until the 28 at 15:00 UTC


280525Z 2806/2815 VRB02KT 0900 BCFG SCT002 BKN003
BECMG 2806/2808 3000 RA BKN006
TEMPO 2806/2812 +RA
BECMG 2809/2812 26012KT
TEMPO 2810/2815 26015G27KT
ATIS : +41 22 417 40 76



MET'MAP, your aeronautical weather chart ! - Copyright ORBIFLY December 2007 - Disclaimer

ORBIFLY MET'MAP TEAM :

Programming & Development : Alexandra Zaïnal
Concept & original design : Baudouin d'Aumeries
Assistance for programming : Marc-Olivier Méhu
Technical & hardware support : Manuel Goepfert

Contact : metmap@orbifly.com




SOURCES & CREDITS :

   NOAA